Time;durP1;ratioP1;P1;durP2;ratioP2;P2;SDS_P1;SDS_P2;PMS_P1;PMS_P2;Temp;Humidity;BMP_temperature;BMP_pressure;BME280_temperature;BME280_humidity;BME280_pressure;Samples;Min_cycle;Max_cycle;Signal;HPM_P1;HPM_P2
2021/07/20 00:01:48;;;;;;;23.50;17.33;;;;;;;17.48;65.65;99195.25;3579178;40;20055;-67
2021/07/20 00:04:16;;;;;;;25.40;18.08;;;;;;;17.42;65.59;99193.47;3588257;40;20044;-67
2021/07/20 00:06:49;;;;;;;23.85;18.52;;;;;;;17.43;65.58;99195.13;3579639;40;20414;-68
2021/07/20 00:09:17;;;;;;;22.48;17.58;;;;;;;17.37;65.88;99195.22;3589542;40;20137;-67
2021/07/20 00:11:46;;;;;;;25.17;18.02;;;;;;;17.25;65.60;99193.31;3589884;40;20082;-66
2021/07/20 00:14:14;;;;;;;20.05;16.85;;;;;;;17.20;66.56;99195.84;3580791;40;20051;-66
2021/07/20 00:16:42;;;;;;;24.02;18.67;;;;;;;17.18;66.00;99191.75;3580596;40;20354;-66
2021/07/20 00:19:14;;;;;;;20.60;17.70;;;;;;;17.01;66.46;99191.56;3589617;40;20057;-66
2021/07/20 00:21:42;;;;;;;22.73;16.92;;;;;;;16.86;67.37;99186.63;3580772;40;20420;-66
2021/07/20 00:24:11;;;;;;;24.27;17.48;;;;;;;16.97;67.23;99195.72;3580450;40;20049;-66
2021/07/20 00:26:40;;;;;;;22.75;17.10;;;;;;;16.88;67.36;99194.41;3589984;40;20080;-66
2021/07/20 00:29:09;;;;;;;23.13;18.27;;;;;;;16.87;67.50;99190.13;3589456;40;20040;-66
2021/07/20 00:31:37;;;;;;;23.23;17.67;;;;;;;16.94;67.41;99191.66;3624491;22;20050;-69
2021/07/20 00:34:06;;;;;;;26.00;18.88;;;;;;;16.97;67.39;99193.06;3590256;40;20088;-67
2021/07/20 00:36:34;;;;;;;22.25;17.10;;;;;;;16.89;67.62;99194.19;3582544;40;20074;-70
2021/07/20 00:39:03;;;;;;;22.98;18.05;;;;;;;16.78;68.11;99194.94;3595161;40;20394;-69
2021/07/20 00:41:31;;;;;;;23.52;17.75;;;;;;;16.84;67.98;99191.38;3577572;40;20060;-70
2021/07/20 00:43:59;;;;;;;23.15;17.55;;;;;;;16.88;67.95;99195.22;3584817;40;20330;-70
2021/07/20 00:46:28;;;;;;;22.25;17.85;;;;;;;16.84;68.16;99191.38;3576388;40;20108;-70
2021/07/20 00:48:57;;;;;;;25.48;18.27;;;;;;;16.75;68.28;99190.03;3574652;40;20049;-69
2021/07/20 00:51:28;;;;;;;23.80;19.17;;;;;;;16.81;68.23;99194.47;3575981;40;20045;-70
2021/07/20 00:53:57;;;;;;;24.88;17.95;;;;;;;16.78;68.15;99200.28;3585163;40;20404;-71
2021/07/20 00:56:27;;;;;;;23.27;17.95;;;;;;;16.80;68.50;99192.84;3584242;40;20180;-70
2021/07/20 00:58:55;;;;;;;23.30;18.38;;;;;;;16.81;67.96;99189.94;3583085;40;20394;-69
2021/07/20 01:01:24;;;;;;;28.90;19.02;;;;;;;16.78;67.79;99194.94;3572292;40;20400;-68
2021/07/20 01:03:57;;;;;;;21.67;16.73;;;;;;;16.70;68.16;99193.34;3571436;40;20056;-68
2021/07/20 01:06:31;;;;;;;23.77;17.33;;;;;;;16.65;68.39;99190.50;3575479;40;20065;-71
2021/07/20 01:09:02;;;;;;;26.58;17.42;;;;;;;16.60;68.42;99198.38;3575269;40;20534;-69
2021/07/20 01:11:36;;;;;;;24.17;19.83;;;;;;;16.62;68.43;99200.84;3575888;40;20150;-69
2021/07/20 01:14:04;;;;;;;22.75;16.60;;;;;;;16.51;68.64;99189.03;3576211;40;20102;-71
2021/07/20 01:16:38;;;;;;;27.58;19.02;;;;;;;16.49;69.13;99201.78;3584576;40;20053;-71
2021/07/20 01:19:08;;;;;;;29.58;22.63;;;;;;;16.35;69.05;99193.91;3583721;40;20088;-71
2021/07/20 01:21:40;;;;;;;23.50;19.77;;;;;;;16.23;69.37;99195.66;3575699;40;20049;-71
2021/07/20 01:24:14;;;;;;;25.50;19.83;;;;;;;16.18;70.27;99200.03;3575764;40;20052;-71
2021/07/20 01:26:44;;;;;;;26.10;18.63;;;;;;;16.13;70.44;99200.69;3575646;40;20402;-71
2021/07/20 01:29:14;;;;;;;24.80;18.77;;;;;;;16.09;70.61;99191.50;3583830;40;20085;-70
2021/07/20 01:31:45;;;;;;;28.08;20.17;;;;;;;16.02;70.53;99196.88;3575288;40;20053;-70
2021/07/20 01:34:17;;;;;;;26.27;17.58;;;;;;;16.08;70.61;99192.50;3575114;40;20055;-70
2021/07/20 01:36:50;;;;;;;24.23;18.23;;;;;;;16.10;70.64;99190.47;3575303;40;20388;-71
2021/07/20 01:39:22;;;;;;;26.40;19.05;;;;;;;16.19;70.50;99183.00;3584392;40;20420;-70
2021/07/20 01:41:53;;;;;;;24.35;17.88;;;;;;;16.02;70.82;99196.06;3584792;40;20137;-71
2021/07/20 01:44:23;;;;;;;23.17;18.35;;;;;;;16.08;70.43;99189.84;3582142;40;20064;-69
2021/07/20 01:46:54;;;;;;;25.35;18.50;;;;;;;16.09;70.53;99189.66;3575351;40;20119;-70
2021/07/20 01:49:24;;;;;;;24.38;17.48;;;;;;;16.15;70.29;99195.94;3575012;40;20045;-70
2021/07/20 01:52:08;;;;;;;26.42;18.05;;;;;;;16.13;70.58;99192.69;3575500;40;20061;-70
2021/07/20 01:54:43;;;;;;;26.55;19.70;;;;;;;16.05;70.32;99191.13;3575229;40;20081;-70
2021/07/20 01:57:14;;;;;;;29.58;17.85;;;;;;;16.00;70.50;99190.13;3575145;40;20043;-70
2021/07/20 02:00:14;;;;;;;24.13;17.60;;;;;;;16.03;70.73;99195.84;3574528;40;20040;-70
2021/07/20 02:03:14;;;;;;;;;;;;;;;16.00;70.54;99193.63;3582769;40;20051;-69
2021/07/20 02:08:42;;;;;;;25.23;19.23;;;;;;;15.70;70.85;99201.44;3574100;40;20049;-71
2021/07/20 02:11:16;;;;;;;24.92;19.50;;;;;;;15.64;71.45;99199.63;3574832;40;20041;-70
2021/07/20 02:14:09;;;;;;;23.95;17.25;;;;;;;15.54;71.92;99196.59;3575110;40;20037;-70
2021/07/20 02:17:02;;;;;;;24.50;17.42;;;;;;;15.56;71.98;99200.69;3579773;40;20053;-70
2021/07/20 02:19:38;;;;;;;25.88;17.95;;;;;;;15.54;71.68;99197.41;3574585;40;20049;-71
2021/07/20 02:22:21;;;;;;;23.35;17.00;;;;;;;15.68;71.67;99192.84;3575468;40;20044;-69
2021/07/20 02:24:51;;;;;;;25.25;18.30;;;;;;;15.71;71.11;99196.91;3576069;40;20093;-70
2021/07/20 02:27:23;;;;;;;24.50;18.38;;;;;;;15.70;70.94;99193.44;3584327;40;20049;-70
2021/07/20 02:30:06;;;;;;;22.42;17.05;;;;;;;15.71;71.00;99188.91;3575389;40;20109;-70
2021/07/20 02:32:35;;;;;;;24.35;18.08;;;;;;;15.73;71.01;99193.00;3585275;40;20045;-70
2021/07/20 02:35:19;;;;;;;21.45;17.38;;;;;;;15.59;70.80;99192.28;3576448;40;20049;-70
2021/07/20 02:37:48;;;;;;;24.60;17.30;;;;;;;15.50;71.11;99195.38;3576172;40;20131;-69
2021/07/20 02:40:19;;;;;;;25.95;18.52;;;;;;;15.35;71.53;99190.38;3575718;40;20048;-69
2021/07/20 02:42:48;;;;;;;25.35;18.85;;;;;;;15.34;71.97;99186.06;3584739;40;20055;-69
2021/07/20 02:45:18;;;;;;;25.67;20.98;;;;;;;15.39;71.33;99191.59;3576234;40;20443;-70
2021/07/20 02:47:49;;;;;;;22.00;17.65;;;;;;;15.35;71.50;99188.53;3576292;40;20071;-69
2021/07/20 02:50:33;;;;;;;23.70;17.40;;;;;;;15.43;71.59;99178.63;3574561;40;20048;-68
2021/07/20 02:53:14;;;;;;;23.23;16.88;;;;;;;15.45;71.34;99181.91;3574133;40;20045;-70
2021/07/20 02:55:54;;;;;;;24.63;18.00;;;;;;;15.42;71.27;99187.66;3581017;40;20029;-69
2021/07/20 02:58:27;;;;;;;22.50;17.38;;;;;;;15.42;71.15;99187.66;3580683;40;20040;-69
2021/07/20 03:00:57;;;;;;;25.70;17.13;;;;;;;15.38;71.56;99181.94;3582143;40;20053;-68
2021/07/20 03:03:25;;;;;;;23.23;17.85;;;;;;;15.40;71.16;99179.88;3582985;40;20072;-68
2021/07/20 03:06:00;;;;;;;24.35;18.60;;;;;;;15.38;71.04;99178.47;3573641;40;20041;-68
2021/07/20 03:08:31;;;;;;;26.30;19.60;;;;;;;15.36;71.24;99184.81;3581692;40;20134;-68
2021/07/20 03:11:15;;;;;;;23.85;17.20;;;;;;;15.26;71.25;99180.97;3572296;40;20049;-69
2021/07/20 03:13:49;;;;;;;23.15;17.92;;;;;;;15.20;71.45;99192.50;3572181;40;20056;-68
2021/07/20 03:16:18;;;;;;;23.17;17.35;;;;;;;15.13;71.02;99183.72;3581310;40;20410;-68
2021/07/20 03:18:50;;;;;;;25.65;17.27;;;;;;;15.04;71.65;99185.81;3579242;40;20044;-68
2021/07/20 03:21:21;;;;;;;22.63;16.85;;;;;;;15.03;71.41;99184.19;3571532;40;20053;-67
2021/07/20 03:23:51;;;;;;;23.67;18.33;;;;;;;15.01;71.28;99186.22;3571269;40;20410;-68
2021/07/20 03:26:20;;;;;;;24.73;18.35;;;;;;;14.90;71.96;99171.75;3579137;40;20334;-69
2021/07/20 03:28:56;;;;;;;26.40;19.55;;;;;;;14.88;71.61;99184.44;3571175;40;20045;-68
2021/07/20 03:31:24;;;;;;;30.02;19.15;;;;;;;14.84;72.04;99178.72;3581642;40;20291;-68
2021/07/20 03:33:57;;;;;;;28.17;18.85;;;;;;;14.85;71.91;99177.69;3580351;40;20318;-67
2021/07/20 03:36:32;;;;;;;24.70;18.45;;;;;;;14.88;71.72;99178.31;3581737;40;20410;-68
2021/07/20 03:39:03;;;;;;;23.50;16.38;;;;;;;14.85;71.98;99174.22;3581844;40;20052;-70
2021/07/20 03:41:34;;;;;;;23.23;17.35;;;;;;;14.82;72.32;99185.31;3575293;40;20045;-70
2021/07/20 03:44:04;;;;;;;23.40;18.20;;;;;;;14.79;71.98;99188.38;3585590;40;20382;-69
2021/07/20 03:46:34;;;;;;;25.23;18.20;;;;;;;14.77;72.01;99187.75;3585624;40;20048;-70
2021/07/20 03:49:04;;;;;;;22.48;18.15;;;;;;;14.80;71.86;99192.66;3576446;40;20048;-70
2021/07/20 03:51:43;;;;;;;26.15;17.83;;;;;;;14.79;72.33;99191.84;3584848;40;20052;-70
2021/07/20 03:54:12;;;;;;;23.48;17.60;;;;;;;14.81;71.85;99189.78;3577100;40;20048;-70
2021/07/20 03:56:41;;;;;;;24.88;18.60;;;;;;;14.80;72.09;99187.34;3576887;40;20093;-69
2021/07/20 03:59:13;;;;;;;28.92;18.77;;;;;;;14.84;72.10;99191.22;3576460;40;20049;-70
2021/07/20 04:02:03;;;;;;;21.58;16.98;;;;;;;14.93;71.69;99191.78;3581974;40;20064;-70
2021/07/20 04:04:36;;;;;;;26.13;16.65;;;;;;;14.90;71.61;99198.38;3576723;40;20041;-68
2021/07/20 04:07:08;;;;;;;25.52;17.90;;;;;;;14.87;71.52;99196.13;3576065;40;20064;-69
2021/07/20 04:09:52;;;;;;;25.00;18.42;;;;;;;14.91;71.74;99191.19;3584166;40;20041;-69
2021/07/20 04:12:42;;;;;;;23.15;17.83;;;;;;;14.89;71.55;99196.72;3585555;40;20410;-70
2021/07/20 04:15:45;;;;;;;22.23;16.80;;;;;;;14.90;71.70;99195.72;3576778;40;20059;-70
2021/07/20 04:18:19;;;;;;;22.48;16.67;;;;;;;14.98;71.35;99197.28;3584347;40;20049;-71
2021/07/20 04:20:48;;;;;;;22.20;16.65;;;;;;;14.99;71.53;99199.75;3575901;40;20041;-70
2021/07/20 04:23:21;;;;;;;23.42;17.77;;;;;;;15.07;71.23;99199.53;3586058;40;20051;-70
2021/07/20 04:26:03;;;;;;;25.70;19.83;;;;;;;15.14;70.54;99199.47;3576793;40;20351;-70
2021/07/20 04:28:36;;;;;;;25.23;17.90;;;;;;;14.97;70.60;99196.47;3576514;40;20036;-69
2021/07/20 04:31:11;;;;;;;24.58;16.70;;;;;;;14.93;71.13;99199.78;3576364;40;20044;-70
2021/07/20 04:33:40;;;;;;;27.00;20.15;;;;;;;14.95;70.87;99198.56;3576743;40;20080;-70
2021/07/20 04:36:27;;;;;;;26.67;17.90;;;;;;;14.90;71.51;99209.03;3585816;40;20055;-70
2021/07/20 04:39:04;;;;;;;23.65;18.55;;;;;;;15.02;71.51;99202.00;3576108;40;20052;-69
2021/07/20 04:41:33;;;;;;;27.05;19.05;;;;;;;15.04;71.25;99207.13;3585795;40;20102;-70
2021/07/20 04:44:02;;;;;;;23.70;17.80;;;;;;;14.93;70.92;99197.94;3584616;40;20107;-70
2021/07/20 04:46:46;;;;;;;28.95;19.23;;;;;;;14.84;71.30;99199.19;3576536;40;20049;-70
2021/07/20 04:49:15;;;;;;;28.67;17.90;;;;;;;14.82;71.21;99194.09;3585315;40;20118;-70
2021/07/20 04:51:45;;;;;;;28.52;22.85;;;;;;;14.88;71.26;99204.94;3576921;40;20049;-69
2021/07/20 04:54:16;;;;;;;24.80;19.08;;;;;;;14.77;71.51;99199.22;3575838;40;20060;-70
2021/07/20 04:56:53;;;;;;;25.48;18.42;;;;;;;14.84;72.17;99201.88;3576210;40;20077;-70
2021/07/20 04:59:22;;;;;;;28.42;21.23;;;;;;;14.96;70.97;99208.16;3575769;40;20048;-69
2021/07/20 05:01:54;;;;;;;25.33;17.95;;;;;;;14.88;71.44;99216.38;3583830;40;20429;-69
2021/07/20 05:04:29;;;;;;;24.27;20.23;;;;;;;14.90;71.15;99216.16;3576290;40;20048;-69
2021/07/20 05:06:58;;;;;;;25.25;18.85;;;;;;;14.78;71.79;99222.16;3576132;40;20052;-69
2021/07/20 05:09:27;;;;;;;28.00;17.95;;;;;;;14.90;71.96;99216.16;3583636;40;20053;-70
2021/07/20 05:11:57;;;;;;;26.73;17.77;;;;;;;14.95;71.63;99217.19;3575154;40;20045;-70
2021/07/20 05:14:25;;;;;;;26.13;18.05;;;;;;;15.11;71.64;99218.56;3575610;40;20087;-69
2021/07/20 05:16:55;;;;;;;25.42;17.80;;;;;;;15.24;71.22;99223.81;3575618;40;20048;-70
2021/07/20 05:19:24;;;;;;;29.38;21.33;;;;;;;15.29;70.24;99225.84;3583452;40;20114;-70
2021/07/20 05:22:05;;;;;;;26.00;19.55;;;;;;;15.20;70.66;99229.78;3575260;40;20049;-70
2021/07/20 05:24:48;;;;;;;27.63;20.15;;;;;;;15.17;70.51;99228.34;3583728;40;20065;-69
2021/07/20 05:27:22;;;;;;;25.40;17.63;;;;;;;15.17;71.08;99231.00;3574375;40;20061;-69
2021/07/20 05:29:51;;;;;;;26.00;19.80;;;;;;;15.16;70.94;99232.06;3573639;40;20080;-70
2021/07/20 05:32:35;;;;;;;30.45;19.30;;;;;;;15.27;71.59;99236.72;3582511;40;20299;-70
2021/07/20 05:35:05;;;;;;;25.23;18.67;;;;;;;15.49;70.52;99231.06;3583172;40;20375;-70
2021/07/20 05:37:35;;;;;;;28.23;19.13;;;;;;;15.52;71.00;99239.44;3573774;40;20045;-70
2021/07/20 05:40:07;;;;;;;30.58;18.90;;;;;;;15.53;71.11;99233.09;3582743;40;20040;-68
2021/07/20 05:42:43;;;;;;;28.83;19.90;;;;;;;15.69;70.69;99237.13;3582289;40;20056;-70
2021/07/20 05:45:23;;;;;;;25.65;19.58;;;;;;;15.82;70.25;99234.34;3573423;40;20049;-69
2021/07/20 05:47:58;;;;;;;29.02;19.55;;;;;;;15.97;70.08;99243.91;3573081;40;20093;-69
2021/07/20 05:50:33;;;;;;;29.75;21.42;;;;;;;16.08;70.13;99245.84;3581991;40;20052;-69
2021/07/20 05:53:28;;;;;;;31.90;20.33;;;;;;;16.20;69.68;99244.09;3582548;40;20051;-68
2021/07/20 05:56:15;;;;;;;28.20;20.42;;;;;;;16.25;69.27;99252.28;3581550;40;20051;-69
2021/07/20 05:58:51;;;;;;;28.65;20.45;;;;;;;16.25;69.24;99246.97;3573064;40;20056;-68
2021/07/20 06:01:20;;;;;;;29.70;19.45;;;;;;;16.34;69.37;99242.97;3582373;40;20061;-68
2021/07/20 06:03:54;;;;;;;28.70;22.27;;;;;;;16.45;68.95;99238.78;3572584;40;20041;-70
2021/07/20 06:06:28;;;;;;;33.17;20.45;;;;;;;16.53;69.01;99249.16;3573213;40;20041;-71
2021/07/20 06:08:56;;;;;;;24.30;19.63;;;;;;;16.58;68.73;99249.31;3582214;40;20049;-68
2021/07/20 06:11:26;;;;;;;25.80;20.15;;;;;;;16.62;68.67;99252.38;3572358;40;20049;-68
2021/07/20 06:13:55;;;;;;;23.75;18.77;;;;;;;16.72;68.47;99249.19;3572785;40;20129;-69
2021/07/20 06:16:24;;;;;;;27.80;19.42;;;;;;;16.70;68.39;99251.28;3582491;40;20048;-70
2021/07/20 06:18:54;;;;;;;25.13;19.55;;;;;;;16.71;68.37;99250.22;3582167;40;20056;-69
2021/07/20 06:21:24;;;;;;;25.52;17.90;;;;;;;16.83;68.22;99249.28;3573015;40;20045;-69
2021/07/20 06:23:52;;;;;;;22.83;17.13;;;;;;;16.91;68.00;99248.19;3582792;40;20050;-71
2021/07/20 06:26:23;;;;;;;24.35;18.58;;;;;;;17.05;67.64;99243.50;3574193;40;20048;-71
2021/07/20 06:28:54;;;;;;;25.30;17.63;;;;;;;17.09;67.37;99255.38;3573284;40;20092;-69
2021/07/20 06:31:23;;;;;;;21.15;17.52;;;;;;;17.12;67.11;99246.91;3627310;22;20032;-65
2021/07/20 06:33:51;;;;;;;23.33;17.92;;;;;;;17.20;67.12;99254.63;3599395;39;20497;-65
2021/07/20 06:36:22;;;;;;;25.75;18.15;;;;;;;17.31;66.50;99258.41;3599094;40;20059;-65
2021/07/20 06:38:50;;;;;;;22.42;16.92;;;;;;;17.33;66.32;99261.66;3599432;40;20058;-66
2021/07/20 06:41:18;;;;;;;19.70;16.40;;;;;;;17.41;65.96;99263.19;3601091;39;20052;-66
2021/07/20 06:43:47;;;;;;;23.88;16.35;;;;;;;17.49;65.90;99261.03;3600012;40;20082;-66
2021/07/20 06:46:22;;;;;;;21.45;16.73;;;;;;;17.55;66.04;99261.97;3602444;40;20044;-67
2021/07/20 06:48:51;;;;;;;24.10;18.52;;;;;;;17.66;65.51;99252.38;3601874;40;20068;-67
2021/07/20 06:51:20;;;;;;;24.50;17.70;;;;;;;17.77;65.15;99260.47;3600515;40;20052;-67
2021/07/20 06:53:51;;;;;;;22.98;17.65;;;;;;;17.89;65.13;99257.00;3600679;39;20048;-67
2021/07/20 06:56:23;;;;;;;20.70;17.00;;;;;;;18.00;64.81;99262.41;3601576;40;20048;-65
2021/07/20 06:58:51;;;;;;;26.73;17.88;;;;;;;18.11;64.35;99263.44;3599753;39;20404;-65
2021/07/20 07:01:21;;;;;;;23.15;16.55;;;;;;;18.17;64.18;99265.22;3598517;40;20028;-66
2021/07/20 07:03:57;;;;;;;22.92;16.17;;;;;;;18.21;63.88;99262.88;3599399;39;20048;-67
2021/07/20 07:06:27;;;;;;;21.23;16.30;;;;;;;18.29;63.69;99260.69;3598118;40;20484;-67
2021/07/20 07:08:56;;;;;;;26.15;17.65;;;;;;;18.39;63.28;99264.63;3598939;40;20072;-67
2021/07/20 07:11:25;;;;;;;22.48;17.35;;;;;;;18.48;63.08;99261.38;3597495;40;20043;-68
2021/07/20 07:13:54;;;;;;;22.70;16.13;;;;;;;18.50;62.88;99263.84;3598686;40;20051;-68
2021/07/20 07:16:23;;;;;;;23.58;16.35;;;;;;;18.65;62.59;99258.81;3598115;39;20044;-67
2021/07/20 07:18:52;;;;;;;24.73;17.83;;;;;;;18.84;61.57;99261.41;3599916;40;20109;-68
2021/07/20 07:21:22;;;;;;;24.05;18.13;;;;;;;18.84;60.89;99259.53;3600096;40;20048;-68
2021/07/20 07:23:52;;;;;;;22.52;16.02;;;;;;;18.90;61.31;99261.28;3600082;39;20047;-68
2021/07/20 07:26:21;;;;;;;28.42;18.05;;;;;;;19.00;61.00;99268.72;3600217;40;20385;-68
2021/07/20 07:28:52;;;;;;;22.92;17.88;;;;;;;19.17;60.49;99263.44;3599758;39;20051;-69
2021/07/20 07:31:21;;;;;;;21.63;15.95;;;;;;;19.23;60.12;99271.34;3599975;40;20059;-68
2021/07/20 07:33:51;;;;;;;25.40;16.70;;;;;;;19.25;59.59;99257.69;3600070;40;20073;-67
2021/07/20 07:36:21;;;;;;;24.25;18.30;;;;;;;19.39;59.74;99267.09;3600227;39;20402;-68
2021/07/20 07:38:52;;;;;;;21.92;17.40;;;;;;;19.51;58.79;99262.50;3599953;39;20336;-66
2021/07/20 07:41:22;;;;;;;20.23;15.65;;;;;;;19.53;58.35;99262.25;3599507;40;20079;-66
2021/07/20 07:43:52;;;;;;;20.33;14.75;;;;;;;19.54;57.73;99261.19;3603022;40;20048;-67
2021/07/20 07:46:21;;;;;;;19.27;14.55;;;;;;;19.71;57.39;99262.06;3607362;40;20385;-67
2021/07/20 07:48:50;;;;;;;22.02;14.45;;;;;;;19.76;57.46;99267.56;3606712;40;20039;-66
2021/07/20 07:51:19;;;;;;;25.02;17.63;;;;;;;19.94;56.42;99268.38;3606818;40;20032;-67
2021/07/20 07:53:47;;;;;;;26.23;17.20;;;;;;;19.95;56.93;99262.75;3607043;39;20020;-67
2021/07/20 07:56:16;;;;;;;25.35;16.20;;;;;;;20.01;56.92;99261.81;3606203;39;20055;-66
2021/07/20 07:58:45;;;;;;;19.58;15.35;;;;;;;20.14;56.58;99254.50;3599444;40;20302;-65
2021/07/20 08:01:14;;;;;;;19.23;14.20;;;;;;;20.39;56.15;99265.63;3600586;39;20040;-66
2021/07/20 08:03:45;;;;;;;19.48;13.68;;;;;;;20.64;55.57;99262.53;3600454;40;20055;-66
2021/07/20 08:06:20;;;;;;;17.67;13.35;;;;;;;20.74;54.60;99265.38;3599370;40;20060;-67
2021/07/20 08:09:09;;;;;;;19.20;14.02;;;;;;;20.71;54.42;99263.19;3598996;40;20047;-67
2021/07/20 08:11:39;;;;;;;19.35;13.43;;;;;;;20.88;53.98;99260.44;3599935;40;20378;-67
2021/07/20 08:14:08;;;;;;;20.35;13.40;;;;;;;20.95;53.84;99253.03;3598728;40;20080;-68
2021/07/20 08:16:43;;;;;;;18.25;13.70;;;;;;;20.89;53.25;99270.13;3599230;40;20052;-68
2021/07/20 08:19:11;;;;;;;18.45;12.93;;;;;;;20.68;53.99;99262.84;3599902;39;20052;-69
2021/07/20 08:21:40;;;;;;;17.17;14.15;;;;;;;20.57;54.02;99271.81;3600237;40;20313;-69
2021/07/20 08:24:08;;;;;;;16.33;13.30;;;;;;;20.55;54.63;99263.22;3599186;40;20043;-69
2021/07/20 08:26:45;;;;;;;21.77;15.68;;;;;;;20.76;54.60;99265.94;3599720;40;20094;-68
2021/07/20 08:29:17;;;;;;;21.95;14.70;;;;;;;20.89;54.45;99267.44;3598953;40;20324;-68
2021/07/20 08:31:49;;;;;;;19.17;13.30;;;;;;;20.99;53.84;99269.47;3599061;40;20071;-69
2021/07/20 08:34:20;;;;;;;16.85;13.13;;;;;;;20.92;52.80;99263.44;3600183;40;20043;-68
2021/07/20 08:36:50;;;;;;;14.93;11.70;;;;;;;21.02;51.39;99264.41;3600393;40;20064;-68
2021/07/20 08:39:19;;;;;;;16.13;12.52;;;;;;;20.95;51.01;99273.72;3599464;40;20128;-69
2021/07/20 08:42:03;;;;;;;14.40;11.88;;;;;;;20.81;51.11;99270.56;3599820;39;20051;-70
2021/07/20 08:44:43;;;;;;;21.45;13.00;;;;;;;20.69;51.59;99273.34;3599847;40;20335;-69
2021/07/20 08:47:17;;;;;;;15.75;13.05;;;;;;;20.70;51.37;99266.94;3599882;40;20044;-69
2021/07/20 08:50:00;;;;;;;16.55;12.90;;;;;;;20.64;51.62;99273.28;3599915;39;20052;-68
2021/07/20 08:52:33;;;;;;;18.15;13.20;;;;;;;20.83;51.31;99273.81;3599110;40;20052;-69
2021/07/20 08:55:09;;;;;;;14.30;12.23;;;;;;;20.97;50.54;99266.19;3599377;40;20060;-67
2021/07/20 08:57:46;;;;;;;19.23;13.55;;;;;;;21.01;50.57;99260.06;3599008;40;20059;-67
2021/07/20 09:00:18;;;;;;;18.73;14.15;;;;;;;21.01;50.87;99265.44;3598837;40;20032;-67
2021/07/20 09:02:50;;;;;;;16.30;12.98;;;;;;;21.06;50.39;99259.31;3600285;40;20052;-67
2021/07/20 09:05:26;;;;;;;14.75;12.48;;;;;;;21.05;49.93;99262.28;3599946;40;20054;-67
2021/07/20 09:08:00;;;;;;;18.25;13.88;;;;;;;21.18;49.30;99262.69;3598666;40;20094;-66
2021/07/20 09:10:36;;;;;;;15.88;11.63;;;;;;;20.86;49.27;99259.06;3599223;40;20043;-67
2021/07/20 09:13:12;;;;;;;15.93;11.63;;;;;;;20.90;49.36;99258.34;3599396;39;20059;-66
2021/07/20 09:15:45;;;;;;;14.93;12.02;;;;;;;20.86;49.78;99265.28;3598529;40;20056;-66
2021/07/20 09:18:19;;;;;;;19.70;13.35;;;;;;;21.13;48.86;99262.63;3598507;40;20354;-68
2021/07/20 09:20:50;;;;;;;16.85;11.60;;;;;;;21.17;49.13;99262.97;3599616;40;20075;-65
2021/07/20 09:23:24;;;;;;;15.88;11.73;;;;;;;21.21;49.27;99261.41;3598793;40;20052;-68
2021/07/20 09:25:58;;;;;;;14.52;12.05;;;;;;;21.42;47.91;99263.28;3598350;40;20055;-68
2021/07/20 09:28:36;;;;;;;14.60;10.77;;;;;;;21.35;46.91;99259.16;3599425;40;20052;-66
2021/07/20 09:31:19;;;;;;;13.23;10.80;;;;;;;21.19;45.21;99263.53;3599689;40;20040;-66
2021/07/20 09:33:55;;;;;;;15.10;12.18;;;;;;;21.36;44.51;99253.53;3599860;39;20044;-66
2021/07/20 09:36:25;;;;;;;17.00;10.85;;;;;;;21.58;45.03;99250.81;3599492;39;20383;-68
2021/07/20 09:39:14;;;;;;;13.65;11.27;;;;;;;21.88;44.58;99261.06;3598873;39;20043;-68
2021/07/20 09:41:48;;;;;;;13.60;12.10;;;;;;;22.05;44.46;99250.19;3598012;40;20043;-68
2021/07/20 09:44:23;;;;;;;17.80;13.02;;;;;;;22.29;44.66;99252.53;3598850;40;20078;-66
2021/07/20 09:47:04;;;;;;;16.35;12.82;;;;;;;22.41;44.64;99247.75;3599584;40;20040;-67
2021/07/20 09:49:46;;;;;;;13.60;12.18;;;;;;;22.44;44.84;99250.75;3598496;40;20421;-67
2021/07/20 09:52:34;;;;;;;15.65;13.82;;;;;;;22.38;45.08;99245.63;3599508;39;20048;-67
2021/07/20 09:55:14;;;;;;;14.85;13.20;;;;;;;22.39;45.24;99239.97;3599492;40;20044;-67
2021/07/20 09:58:00;;;;;;;15.10;12.00;;;;;;;22.52;45.18;99241.38;3598637;40;20059;-67
2021/07/20 10:00:38;;;;;;;15.40;12.65;;;;;;;22.72;43.97;99235.31;3598157;40;20047;-67
2021/07/20 10:03:13;;;;;;;14.18;12.35;;;;;;;22.70;44.13;99229.38;3598483;40;20087;-67
2021/07/20 10:05:52;;;;;;;15.40;11.95;;;;;;;22.70;43.99;99230.19;3599280;40;20054;-67
2021/07/20 10:08:27;;;;;;;16.58;11.68;;;;;;;22.61;43.39;99234.44;3599087;40;20555;-67
2021/07/20 10:11:10;;;;;;;14.63;11.85;;;;;;;21.97;44.15;99239.88;3598179;40;20386;-67
2021/07/20 10:13:46;;;;;;;14.73;12.38;;;;;;;21.93;44.80;99238.78;3598731;40;20059;-67
2021/07/20 10:16:22;;;;;;;16.33;11.02;;;;;;;21.99;44.51;99238.53;3598340;40;20047;-67
2021/07/20 10:18:59;;;;;;;14.73;11.18;;;;;;;21.97;44.21;99235.31;3599048;40;20052;-68
2021/07/20 10:21:29;;;;;;;13.32;11.00;;;;;;;21.91;45.09;99236.31;3599323;40;20044;-68
2021/07/20 10:24:01;;;;;;;14.75;11.65;;;;;;;22.24;44.71;99232.56;3598136;40;20084;-68
2021/07/20 10:26:32;;;;;;;13.95;11.90;;;;;;;22.45;44.36;99230.84;3598514;40;20040;-68
2021/07/20 10:29:08;;;;;;;12.80;10.85;;;;;;;22.59;43.00;99227.69;3598965;40;20313;-67
2021/07/20 10:31:45;;;;;;;13.27;10.98;;;;;;;22.60;43.75;99226.63;3599083;40;20036;-68
2021/07/20 10:34:18;;;;;;;14.02;11.48;;;;;;;22.78;43.41;99225.34;3598060;40;20074;-68
2021/07/20 10:36:50;;;;;;;15.82;11.60;;;;;;;22.97;42.63;99213.88;3598329;40;20052;-68
2021/07/20 10:39:22;;;;;;;13.05;9.93;;;;;;;22.89;42.22;99217.06;3597585;40;20130;-67
2021/07/20 10:41:58;;;;;;;13.63;10.55;;;;;;;23.09;41.70;99213.66;3598239;40;20028;-68
2021/07/20 10:44:32;;;;;;;13.20;10.50;;;;;;;23.24;41.34;99211.03;3598236;40;20397;-68
2021/07/20 10:47:05;;;;;;;13.85;10.65;;;;;;;23.35;41.17;99214.56;3599017;40;20415;-67
2021/07/20 10:49:39;;;;;;;14.30;10.63;;;;;;;23.34;41.87;99220.22;3597620;40;20093;-68
2021/07/20 10:52:19;;;;;;;13.57;10.40;;;;;;;23.21;41.10;99216.13;3598055;39;20035;-68
2021/07/20 10:54:52;;;;;;;14.00;10.60;;;;;;;23.26;41.04;99210.75;3597887;40;20052;-69
2021/07/20 10:57:28;;;;;;;12.05;10.25;;;;;;;23.30;41.25;99208.31;3598098;40;20052;-68
2021/07/20 11:00:07;;;;;;;12.00;10.70;;;;;;;23.38;40.07;99211.31;3597759;40;20051;-68
2021/07/20 11:02:45;;;;;;;13.88;11.45;;;;;;;23.10;40.60;99217.97;3597919;40;20051;-68
2021/07/20 11:05:15;;;;;;;15.85;12.05;;;;;;;23.11;40.50;99214.22;3598572;40;20403;-69
2021/07/20 11:07:46;;;;;;;12.93;10.75;;;;;;;23.20;39.83;99196.44;3597865;40;20044;-69
2021/07/20 11:10:21;;;;;;;13.73;11.95;;;;;;;23.36;40.17;99199.19;3598332;39;20040;-69
2021/07/20 11:12:54;;;;;;;12.50;11.15;;;;;;;23.26;40.32;99201.84;3597796;40;20055;-71
2021/07/20 11:15:22;;;;;;;11.88;10.60;;;;;;;23.33;40.08;99203.22;3597716;40;20047;-69
2021/07/20 11:17:52;;;;;;;14.23;11.38;;;;;;;23.22;39.93;99202.38;3599075;39;20044;-69
2021/07/20 11:20:30;;;;;;;14.48;11.70;;;;;;;23.23;40.50;99195.91;3597789;40;20050;-69
2021/07/20 11:22:59;;;;;;;12.52;11.18;;;;;;;23.19;40.08;99188.63;3598025;40;20364;-69
2021/07/20 11:25:28;;;;;;;12.30;10.57;;;;;;;23.30;40.03;99189.44;3598526;39;20055;-69
2021/07/20 11:27:59;;;;;;;14.40;11.40;;;;;;;23.46;39.90;99194.59;3598459;39;20044;-69
2021/07/20 11:30:30;;;;;;;12.30;10.25;;;;;;;23.52;39.38;99191.94;3597579;40;20332;-68
2021/07/20 11:33:03;;;;;;;14.68;11.75;;;;;;;23.62;39.25;99190.03;3598285;40;20405;-69
2021/07/20 11:35:39;;;;;;;12.80;11.48;;;;;;;23.59;38.53;99187.88;3598666;40;20446;-68
2021/07/20 11:38:11;;;;;;;12.70;11.38;;;;;;;23.28;39.27;99194.31;3598265;39;20060;-68
2021/07/20 11:40:45;;;;;;;12.05;10.30;;;;;;;23.33;39.67;99191.63;3598421;39;20040;-67
2021/07/20 11:43:17;;;;;;;13.25;10.05;;;;;;;23.39;40.15;99188.69;3598349;40;20401;-66
2021/07/20 11:45:53;;;;;;;11.25;10.02;;;;;;;23.40;39.77;99192.19;3597598;40;20028;-66
2021/07/20 11:48:28;;;;;;;12.90;10.13;;;;;;;23.51;39.63;99188.41;3598283;39;20480;-66